LHDC Airport Information

Runway Information
Runway 05L Length 8087 ft width 230 ft
Elevation 0 ft Threshold 0 ft Heading 48
Runway 23R Length 8087 ft Width 230 ft
Elevation 0 ft Threshold 0 ft Heading 228
Runway 05R Length 8196 ft width 131 ft
Elevation 355 ft Threshold 0 ft Heading 48
Runway 23L Length 8196 ft Width 131 ft
Elevation 359 ft Threshold 979 ft Heading 228
Airport Frequencies
Type AFIS Name INFO Frequency 125.9 MHZ
Type INFO Name BUDAPEST I Frequency 133.3 MHZ
Airport Navaids
Type NDB Name Debrecen Frequency 326 KHZ
Type NDB Name Debrecen Frequency 295 KHZ
Airport Weather Information & NOTAM
ADDS - METARS form results

(1812 UTC 19 January 2019)
Data provider http://aviationweather.gov/metar/data/
 
METAR text: LHDC 191745Z 05005KT 8000 NSC M02/M04 Q1020 NOSIG
Conditions at: LHDC (DEBRECEN AIRPORT, HU) observed 1745 UTC 19 January 2019
Temperature: -2.0°C (28°F)
Dewpoint: -4.0°C (25°F) [RH = 86%]
Pressure (altimeter): 30.12 inches Hg (1020.0 mb)
Winds: from the NE (50 degrees) at 6 MPH (5 knots; 2.6 m/s)
Visibility: 5 miles ( 8 km)
Ceiling: at least 12,000 feet AGL
Clouds: sky clear below 12,000 feet AGL
Weather: no significant weather observed at this time

METAR text: LHDC 191715Z 05006KT 8000 NSC M02/M04 Q1020 NOSIG
Conditions at: LHDC (DEBRECEN AIRPORT, HU) observed 1715 UTC 19 January 2019
Temperature: -2.0°C (28°F)
Dewpoint: -4.0°C (25°F) [RH = 86%]
Pressure (altimeter): 30.12 inches Hg (1020.0 mb)
Winds: from the NE (50 degrees) at 7 MPH (6 knots; 3.1 m/s)
Visibility: 5 miles ( 8 km)
Ceiling: at least 12,000 feet AGL
Clouds: sky clear below 12,000 feet AGL
Weather: no significant weather observed at this time

Forecast for: LHDC (DEBRECEN AIRPORT, HU)
Text: TAF LHDC 191415Z 1915/1924 05007KT CAVOK
Forecast period: 1500 to 2000 UTC 19 January 2019
Forecast type: FROM: standard forecast or significant change
Winds: from the NE (50 degrees) at 8 MPH (7 knots; 3.6 m/s)
Visibility: 6 or more miles 10+ km)
Ceiling: unknown
Clouds: missing
Weather: NSW  (no significant weather)
Text: BECMG 1920/1923 SCT040 BKN060
Forecast period: 2000 UTC 19 January 2019 to 0000 UTC 20 January 2019
Forecast type: BECOMING: Conditions expected to become as follows by 2300 UTC 19 January 2019
Winds: from the NE (50 degrees) at 8 MPH (7 knots; 3.6 m/s)
Visibility: 6 or more miles 10+ km)
Ceiling: 6000 feet AGL
Clouds: scattered clouds at 4000 feet AGL
broken clouds at 6000 feet AGL
Weather: NSW  (no significant weather)